Time;durP1;ratioP1;P1;durP2;ratioP2;P2;SDS_P1;SDS_P2;PMS_P1;PMS_P2;Temp;Humidity;BMP_temperature;BMP_pressure;BME280_temperature;BME280_humidity;BME280_pressure;Samples;Min_cycle;Max_cycle;Signal;HPM_P1;HPM_P2
2020/01/08 00:00:33;;;;;;;19.8;17;;;;;;;2.94;78.84668;973.3195;;;;
2020/01/08 00:02:59;;;;;;;19.4;16.5;;;;;;;2.98;77.81836;973.3156;;;;
2020/01/08 00:05:24;;;;;;;18.6;16.2;;;;;;;2.96;77.72168;973.3183;;;;
2020/01/08 00:07:49;;;;;;;19.4;16.4;;;;;;;2.88;77.69629;973.4033;;;;
2020/01/08 00:10:14;;;;;;;18.4;16.1;;;;;;;2.85;78.09375;973.3895;;;;
2020/01/08 00:12:39;;;;;;;18;15.6;;;;;;;2.84;78.25391;973.4216;;;;
2020/01/08 00:15:04;;;;;;;19.1;14.9;;;;;;;2.86;78.49805;973.4745;;;;
2020/01/08 00:17:29;;;;;;;18.2;15.3;;;;;;;2.84;78.77148;973.5133;;;;
2020/01/08 00:19:54;;;;;;;20.4;16.3;;;;;;;2.88;77.96094;973.4395;;;;
2020/01/08 00:22:19;;;;;;;19.6;15.4;;;;;;;2.82;77.59277;973.4391;;;;
2020/01/08 00:24:44;;;;;;;22.6;18.4;;;;;;;2.83;78.04297;973.4727;;;;
2020/01/08 00:27:10;;;;;;;18.4;16;;;;;;;2.75;77.75195;973.4267;;;;
2020/01/08 00:29:35;;;;;;;17.5;15.3;;;;;;;2.7;77.55859;973.389;;;;
2020/01/08 00:32:00;;;;;;;21.2;17.5;;;;;;;2.75;77.39355;973.3191;;;;
2020/01/08 00:34:25;;;;;;;19.1;15.2;;;;;;;2.77;77.41016;973.3017;;;;
2020/01/08 00:36:50;;;;;;;17;15.2;;;;;;;2.64;77.91699;973.3738;;;;
2020/01/08 00:39:15;;;;;;;17.7;15.1;;;;;;;2.58;77.89258;973.4079;;;;
2020/01/08 00:41:40;;;;;;;20.4;17;;;;;;;2.63;78.26074;973.3162;;;;
2020/01/08 00:44:05;;;;;;;19;15.3;;;;;;;2.61;78.00098;973.2997;;;;
2020/01/08 00:46:30;;;;;;;18.1;15;;;;;;;2.67;77.79492;973.2859;;;;
2020/01/08 00:48:55;;;;;;;17.9;15.9;;;;;;;2.57;78.86914;973.177;;;;
2020/01/08 00:51:20;;;;;;;17.4;15.4;;;;;;;2.59;78.92188;973.2592;;;;
2020/01/08 00:53:45;;;;;;;18.6;16.6;;;;;;;2.48;78.6582;973.3406;;;;
2020/01/08 00:56:10;;;;;;;18.2;16.1;;;;;;;2.47;78.9082;973.3889;;;;
2020/01/08 00:58:36;;;;;;;17.3;15.1;;;;;;;2.53;78.28711;973.3423;;;;
2020/01/08 01:01:01;;;;;;;20.1;16.5;;;;;;;2.54;77.9668;973.3444;;;;
2020/01/08 01:03:28;;;;;;;17.4;15.4;;;;;;;2.56;77.85645;973.2886;;;;
2020/01/08 01:06:08;;;;;;;18;16.1;;;;;;;2.5;78.00488;973.2847;;;;
2020/01/08 01:15:32;;;;;;;19.7;17.5;;;;;;;2.23;78.97754;973.0905;;;;
2020/01/08 01:17:57;;;;;;;21.6;18.3;;;;;;;2.21;79.04492;973.1403;;;;
2020/01/08 01:20:22;;;;;;;23.4;20.1;;;;;;;2.22;79.26465;973.1178;;;;
2020/01/08 01:22:47;;;;;;;21.6;18.6;;;;;;;2.22;79.05762;973.0111;;;;
2020/01/08 01:25:12;;;;;;;23.6;19.6;;;;;;;1.88;81.15527;972.9891;;;;
2020/01/08 01:27:37;;;;;;;21.1;17.8;;;;;;;1.97;81.33105;973.0212;;;;
2020/01/08 01:30:02;;;;;;;21.5;18.9;;;;;;;1.8;82.51563;972.9583;;;;
2020/01/08 01:32:28;;;;;;;25.4;20.3;;;;;;;1.65;83.90039;972.8425;;;;
2020/01/08 01:34:53;;;;;;;22.1;18.6;;;;;;;1.88;82.78613;972.892;;;;
2020/01/08 01:37:18;;;;;;;20.2;17.9;;;;;;;1.95;81.80957;972.9792;;;;
2020/01/08 01:39:43;;;;;;;18.5;15.3;;;;;;;2.17;80.91016;973.0671;;;;
2020/01/08 01:42:08;;;;;;;20.2;16.4;;;;;;;2.25;80.69531;973.0161;;;;
2020/01/08 01:44:33;;;;;;;21.7;18.3;;;;;;;2.37;79.15527;973.0109;;;;
2020/01/08 01:46:59;;;;;;;20.7;17.6;;;;;;;2.34;78.61914;972.9714;;;;
2020/01/08 01:51:28;;;;;;;19.8;15.7;;;;;;;2.23;78.65723;973.1487;;;;
2020/01/08 01:53:53;;;;;;;19.2;16.2;;;;;;;2.24;78.46387;973.0981;;;;
2020/01/08 01:56:18;;;;;;;18.1;14.9;;;;;;;2.16;78.3916;973.1531;;;;
2020/01/08 01:58:43;;;;;;;17.5;15.6;;;;;;;2.16;78.44922;973.2228;;;;
2020/01/08 02:01:08;;;;;;;19.2;15.7;;;;;;;2.18;78.39453;973.3247;;;;
2020/01/08 02:03:33;;;;;;;17.8;15.2;;;;;;;2.18;78.24707;973.2797;;;;
2020/01/08 02:05:58;;;;;;;22.5;17;;;;;;;2;78.67188;973.1638;;;;
2020/01/08 02:08:23;;;;;;;22.2;17.2;;;;;;;1.81;79.31348;973.0729;;;;
2020/01/08 02:10:48;;;;;;;22.9;19.1;;;;;;;1.59;80.74316;973.0372;;;;
2020/01/08 02:13:13;;;;;;;19.8;16;;;;;;;1.74;80.34766;972.9685;;;;
2020/01/08 02:15:39;;;;;;;19.1;16.5;;;;;;;1.84;80.77734;972.952;;;;
2020/01/08 02:18:04;;;;;;;18.8;15.6;;;;;;;1.99;80.27734;972.9906;;;;
2020/01/08 02:20:29;;;;;;;18.3;16.1;;;;;;;1.96;80.61914;973.1187;;;;
2020/01/08 02:22:54;;;;;;;18.5;15.3;;;;;;;2.02;80.28613;973.0558;;;;
2020/01/08 02:25:19;;;;;;;18.7;15.8;;;;;;;2.06;79.99219;973.036;;;;
2020/01/08 02:27:44;;;;;;;17.4;15.1;;;;;;;2.07;79.11035;973.0142;;;;
2020/01/08 02:30:09;;;;;;;21.2;16.7;;;;;;;1.97;79.55078;973.0036;;;;
2020/01/08 02:32:34;;;;;;;18.2;15;;;;;;;2.09;79.25293;973.0427;;;;
2020/01/08 02:34:59;;;;;;;16.8;14.7;;;;;;;2.06;78.75098;973.1243;;;;
2020/01/08 02:37:24;;;;;;;18.1;14.7;;;;;;;2.05;78.25684;973.0658;;;;
2020/01/08 02:39:52;;;;;;;20;15.9;;;;;;;2.01;78.4668;973.0503;;;;
2020/01/08 02:42:14;;;;;;;21.9;17.9;;;;;;;2.09;78.5625;973.0274;;;;
2020/01/08 02:44:39;;;;;;;19.9;16.7;;;;;;;2.12;78.4541;973.0438;;;;
2020/01/08 02:47:04;;;;;;;19.2;16.4;;;;;;;2.04;78.49512;973.059;;;;
2020/01/08 02:49:29;;;;;;;18.6;14.8;;;;;;;2;78.81055;973.1365;;;;
2020/01/08 02:51:55;;;;;;;17.2;14.7;;;;;;;1.94;78.89063;973.0747;;;;
2020/01/08 02:54:20;;;;;;;17.5;14.7;;;;;;;1.89;78.09961;973.073;;;;
2020/01/08 02:56:54;;;;;;;18.6;14.8;;;;;;;1.98;77.7959;973.0331;;;;
2020/01/08 02:59:11;;;;;;;18.4;15.1;;;;;;;1.93;77.98145;972.9633;;;;
2020/01/08 03:01:37;;;;;;;16.8;15;;;;;;;1.9;77.76953;972.8755;;;;
2020/01/08 03:04:00;;;;;;;19.7;15.9;;;;;;;1.74;78.34766;972.9071;;;;
2020/01/08 03:08:51;;;;;;;19;15.2;;;;;;;1.79;78.56445;972.8203;;;;
2020/01/08 03:11:19;;;;;;;19.2;16.2;;;;;;;1.9;78.87109;972.7031;;;;
2020/01/08 03:16:05;;;;;;;18.7;15.4;;;;;;;1.7;79.61426;972.7561;;;;
2020/01/08 03:18:30;;;;;;;19.4;15.9;;;;;;;1.71;80.16797;972.7123;;;;
2020/01/08 03:20:56;;;;;;;17.7;15.8;;;;;;;1.75;79.34863;972.7831;;;;
2020/01/08 03:23:21;;;;;;;17.6;15.7;;;;;;;1.72;79.14844;972.782;;;;
2020/01/08 03:25:46;;;;;;;17.3;14.8;;;;;;;1.8;79.4043;972.8138;;;;
2020/01/08 03:28:11;;;;;;;18.8;15.6;;;;;;;1.86;79.65723;972.8208;;;;
2020/01/08 03:30:36;;;;;;;20.2;15.9;;;;;;;1.8;79.12891;972.8748;;;;
2020/01/08 03:33:01;;;;;;;17.6;15.6;;;;;;;1.79;79.75879;972.8492;;;;
2020/01/08 03:35:26;;;;;;;17.6;15.7;;;;;;;1.84;78.99902;972.7611;;;;
2020/01/08 03:37:51;;;;;;;18;15;;;;;;;1.74;79.38086;972.7211;;;;
2020/01/08 03:40:17;;;;;;;17.5;14.7;;;;;;;1.84;78.66406;972.7611;;;;
2020/01/08 03:42:42;;;;;;;18.5;15.3;;;;;;;1.75;79.37109;972.7239;;;;
2020/01/08 03:45:07;;;;;;;18.4;15.5;;;;;;;1.79;79.27637;972.6752;;;;
2020/01/08 03:47:32;;;;;;;18.2;14.5;;;;;;;1.8;78.93457;972.6887;;;;
2020/01/08 03:49:57;;;;;;;17;14.6;;;;;;;1.79;79.29883;972.7794;;;;
2020/01/08 03:52:22;;;;;;;19.3;15.7;;;;;;;1.77;79.07813;972.8303;;;;
2020/01/08 03:54:47;;;;;;;17;14.7;;;;;;;1.75;78.65918;972.8843;;;;
2020/01/08 03:57:13;;;;;;;17.2;14.7;;;;;;;1.84;78.67578;972.9063;;;;
2020/01/08 03:59:38;;;;;;;16.4;14.1;;;;;;;1.87;78.6709;972.9483;;;;
2020/01/08 04:02:27;;;;;;;17.2;14.5;;;;;;;1.83;78.44629;972.9601;;;;
2020/01/08 04:04:52;;;;;;;17;14.7;;;;;;;1.75;78.7627;972.9356;;;;
2020/01/08 04:07:17;;;;;;;16.2;14.1;;;;;;;1.82;78.61719;972.9185;;;;
2020/01/08 04:09:42;;;;;;;16.8;14.2;;;;;;;1.8;78.83203;972.955;;;;
2020/01/08 04:12:07;;;;;;;17.5;15;;;;;;;1.87;79.64746;972.9274;;;;
2020/01/08 04:14:32;;;;;;;19.9;15.5;;;;;;;1.81;79.53223;972.918;;;;
2020/01/08 04:16:57;;;;;;;18.4;15.9;;;;;;;1.9;79.3877;972.9542;;;;
2020/01/08 04:19:23;;;;;;;19.4;15;;;;;;;1.81;79.28125;972.9417;;;;
2020/01/08 04:21:48;;;;;;;17.9;15.7;;;;;;;1.84;79.33008;972.9472;;;;
2020/01/08 04:24:13;;;;;;;17.6;15.4;;;;;;;1.88;78.93848;973.0108;;;;
2020/01/08 04:26:38;;;;;;;18;15.4;;;;;;;1.87;78.82031;973.0357;;;;
2020/01/08 04:29:03;;;;;;;16.9;14.2;;;;;;;1.81;78.32617;973.0039;;;;
2020/01/08 04:31:28;;;;;;;18.4;15;;;;;;;1.8;79.15332;972.8628;;;;
2020/01/08 04:33:53;;;;;;;18.6;16.4;;;;;;;1.51;80.02539;972.7525;;;;
2020/01/08 04:36:18;;;;;;;19;16;;;;;;;1.55;80.10352;972.7764;;;;
2020/01/08 04:38:43;;;;;;;17.6;15.5;;;;;;;1.74;79.46289;972.8097;;;;
2020/01/08 04:41:08;;;;;;;16.7;14.9;;;;;;;1.79;79.03516;972.7834;;;;
2020/01/08 04:43:33;;;;;;;18.8;16.2;;;;;;;1.64;79.37402;972.6983;;;;
2020/01/08 04:45:59;;;;;;;22.6;18;;;;;;;1.17;81.53418;972.6044;;;;
2020/01/08 04:48:24;;;;;;;21.3;18.4;;;;;;;1;82.8877;972.5219;;;;
2020/01/08 04:50:49;;;;;;;23.8;19.4;;;;;;;0.78;83.88672;972.5246;;;;
2020/01/08 04:53:14;;;;;;;20.8;17.8;;;;;;;0.76;84.2041;972.4974;;;;
2020/01/08 04:55:39;;;;;;;22.3;18.1;;;;;;;0.75;84.21387;972.4073;;;;
2020/01/08 04:58:04;;;;;;;19;16.6;;;;;;;0.8;84.25684;972.4417;;;;
2020/01/08 05:00:29;;;;;;;20.1;16.7;;;;;;;1.02;83.70605;972.4509;;;;
2020/01/08 05:02:54;;;;;;;19;15.8;;;;;;;1.34;82.20898;972.4997;;;;
2020/01/08 05:05:19;;;;;;;20.2;17.1;;;;;;;1.56;81.37793;972.442;;;;
2020/01/08 05:07:44;;;;;;;19;16;;;;;;;1.65;80.92773;972.4977;;;;
2020/01/08 05:10:09;;;;;;;17.2;15.4;;;;;;;1.82;80.33789;972.568;;;;
2020/01/08 05:12:34;;;;;;;17;14.4;;;;;;;1.95;79.52441;972.6799;;;;
2020/01/08 05:14:59;;;;;;;16.2;14.3;;;;;;;2.07;79.13184;972.7327;;;;
2020/01/08 05:17:36;;;;;;;16.5;14.6;;;;;;;2.07;78.99609;972.7559;;;;
2020/01/08 05:19:51;;;;;;;17.1;14.8;;;;;;;2.14;78.91504;972.8013;;;;
2020/01/08 05:22:15;;;;;;;17.5;15.2;;;;;;;2.05;79.0498;972.7022;;;;
2020/01/08 05:24:40;;;;;;;17.1;14.8;;;;;;;2.04;79.24316;972.687;;;;
2020/01/08 05:27:05;;;;;;;17.1;14.7;;;;;;;2.15;78.86133;972.692;;;;
2020/01/08 05:29:30;;;;;;;19.8;16.8;;;;;;;1.92;79.80664;972.7542;;;;
2020/01/08 05:31:55;;;;;;;18.3;15.9;;;;;;;1.9;80.22754;972.7512;;;;
2020/01/08 05:34:20;;;;;;;19.4;15.3;;;;;;;1.86;80.16211;972.8649;;;;
2020/01/08 05:36:46;;;;;;;20.1;16.8;;;;;;;1.88;80.4873;972.8423;;;;
2020/01/08 05:39:11;;;;;;;20.9;16.4;;;;;;;1.94;80.13086;972.9239;;;;
2020/01/08 05:41:36;;;;;;;18.9;15.8;;;;;;;2.06;79.91113;972.9004;;;;
2020/01/08 05:44:01;;;;;;;17.2;14.9;;;;;;;2.11;79.93262;973.0281;;;;
2020/01/08 05:46:26;;;;;;;16.6;14.5;;;;;;;2.2;79.58301;973.1067;;;;
2020/01/08 05:48:59;;;;;;;20.7;17.7;;;;;;;2.31;79.16797;973.0157;;;;
2020/01/08 05:51:16;;;;;;;18.6;16.1;;;;;;;2.21;79.32031;972.8883;;;;
2020/01/08 05:53:41;;;;;;;19.1;17;;;;;;;2.2;79.36523;972.9116;;;;
2020/01/08 05:56:07;;;;;;;17.2;15.4;;;;;;;2.21;79.37695;972.9589;;;;
2020/01/08 05:58:32;;;;;;;18.6;15.1;;;;;;;2.28;79.40332;972.8983;;;;
2020/01/08 06:00:57;;;;;;;18.3;15.1;;;;;;;2.29;79.11719;973.0073;;;;
2020/01/08 06:03:22;;;;;;;17.9;15.5;;;;;;;2.35;78.77246;972.9717;;;;
2020/01/08 06:05:47;;;;;;;20.2;17.1;;;;;;;2.3;78.98047;972.9462;;;;
2020/01/08 06:08:12;;;;;;;20.4;17.8;;;;;;;2.36;78.77246;972.8656;;;;
2020/01/08 06:10:37;;;;;;;18.5;16.5;;;;;;;2.35;78.80664;972.8561;;;;
2020/01/08 06:13:03;;;;;;;18.6;15.7;;;;;;;2.3;79.08398;972.9479;;;;
2020/01/08 06:15:28;;;;;;;18.3;16;;;;;;;2.21;79.36621;973.0336;;;;
2020/01/08 06:17:53;;;;;;;16.9;15.1;;;;;;;2.24;79.35059;973.0643;;;;
2020/01/08 06:20:18;;;;;;;18.4;15.8;;;;;;;2.28;79.41406;972.9858;;;;
2020/01/08 06:22:43;;;;;;;19;16.9;;;;;;;1.96;80.41211;972.8443;;;;
2020/01/08 06:25:08;;;;;;;18.8;16.8;;;;;;;1.8;81.31152;972.8876;;;;
2020/01/08 06:27:33;;;;;;;17;14.9;;;;;;;2.1;80.42676;972.9294;;;;
2020/01/08 06:29:58;;;;;;;18.2;15.8;;;;;;;1.87;80.89844;972.8793;;;;
2020/01/08 06:32:24;;;;;;;18.9;16.8;;;;;;;1.88;81.24512;972.9314;;;;
2020/01/08 06:34:49;;;;;;;18.5;15.9;;;;;;;2;80.47559;972.8755;;;;
2020/01/08 06:37:14;;;;;;;20.2;17.4;;;;;;;1.92;80.86133;972.808;;;;
2020/01/08 06:39:39;;;;;;;17.3;15.4;;;;;;;2.05;80.35938;972.7898;;;;
2020/01/08 06:42:04;;;;;;;19.4;16.3;;;;;;;2.02;80.28418;972.7269;;;;
2020/01/08 06:44:29;;;;;;;20;16.4;;;;;;;1.94;80.80859;972.6415;;;;
2020/01/08 06:46:54;;;;;;;20.2;16.7;;;;;;;1.79;81.6084;972.5925;;;;
2020/01/08 06:49:19;;;;;;;18.3;16.3;;;;;;;1.79;81.60547;972.6191;;;;
2020/01/08 06:51:45;;;;;;;17.4;14.6;;;;;;;1.84;81.43359;972.6351;;;;
2020/01/08 06:54:10;;;;;;;17.3;14.7;;;;;;;1.78;81.44434;972.7739;;;;
2020/01/08 06:56:35;;;;;;;16.1;13.5;;;;;;;1.81;81.69141;972.8915;;;;
2020/01/08 06:59:00;;;;;;;17;14.6;;;;;;;1.88;81.45215;972.8423;;;;
2020/01/08 07:01:25;;;;;;;15.2;13.3;;;;;;;1.88;80.78613;972.8784;;;;
2020/01/08 07:03:50;;;;;;;15.3;13.6;;;;;;;1.85;80.6084;972.8906;;;;
2020/01/08 07:06:15;;;;;;;18;13.5;;;;;;;1.88;80.75098;972.8856;;;;
2020/01/08 07:08:41;;;;;;;14.5;13;;;;;;;1.97;80.29688;972.8351;;;;
2020/01/08 07:11:06;;;;;;;14.7;12.3;;;;;;;2.12;79.44043;972.8688;;;;
2020/01/08 07:13:31;;;;;;;15.6;12.7;;;;;;;2.23;79.24316;972.8865;;;;
2020/01/08 07:15:56;;;;;;;15.2;12.4;;;;;;;2.24;78.90234;972.8797;;;;
2020/01/08 07:18:21;;;;;;;14;12.5;;;;;;;2.29;78.91016;972.8661;;;;
2020/01/08 07:20:46;;;;;;;14.8;12.4;;;;;;;2.11;79.10742;972.8451;;;;
2020/01/08 07:23:11;;;;;;;15.1;13;;;;;;;2.23;79.13867;972.8239;;;;
2020/01/08 07:25:36;;;;;;;14.6;12.4;;;;;;;2.27;78.81445;972.8606;;;;
2020/01/08 07:28:01;;;;;;;15.3;12.6;;;;;;;2.11;78.81836;972.87;;;;
2020/01/08 07:30:27;;;;;;;13.8;11.6;;;;;;;2.23;78.68066;972.8566;;;;
2020/01/08 07:32:52;;;;;;;13.8;11.8;;;;;;;2.07;79.36328;972.8192;;;;
2020/01/08 07:35:17;;;;;;;13.2;11.3;;;;;;;2.07;79.2832;972.8602;;;;
2020/01/08 07:37:42;;;;;;;12.9;11.5;;;;;;;2.06;79.32715;972.9188;;;;
2020/01/08 07:40:10;;;;;;;12.6;10.7;;;;;;;2.14;78.83594;973.0419;;;;
2020/01/08 07:44:58;;;;;;;12.5;10.9;;;;;;;2.34;78.40137;973.0894;;;;
2020/01/08 07:47:23;;;;;;;12.3;10.8;;;;;;;2.37;78.12012;973.1281;;;;
2020/01/08 07:49:48;;;;;;;11.8;10.2;;;;;;;2.41;78.14941;973.1973;;;;
2020/01/08 07:53:27;;;;;;;11.9;10.1;;;;;;;2.43;77.51074;973.2747;;;;
2020/01/08 07:55:52;;;;;;;11;9.9;;;;;;;2.48;77.72559;973.3198;;;;
2020/01/08 07:58:17;;;;;;;11.9;10.7;;;;;;;2.56;77.48633;973.3159;;;;
2020/01/08 08:00:42;;;;;;;12.1;9.7;;;;;;;2.59;76.76855;973.3861;;;;
2020/01/08 08:03:07;;;;;;;11.3;9.4;;;;;;;2.51;76.96094;973.4227;;;;
2020/01/08 08:05:32;;;;;;;11.8;9.9;;;;;;;2.5;76.78516;973.3771;;;;
2020/01/08 08:07:57;;;;;;;10.8;9.1;;;;;;;2.6;76.58594;973.3772;;;;
2020/01/08 08:10:22;;;;;;;11.9;9.7;;;;;;;2.52;77.21582;973.3713;;;;
2020/01/08 08:12:47;;;;;;;12.5;9.9;;;;;;;2.61;77.10352;973.4057;;;;
2020/01/08 08:15:12;;;;;;;11.5;9.3;;;;;;;2.66;76.4707;973.3928;;;;
2020/01/08 08:17:37;;;;;;;12.5;9.5;;;;;;;2.69;76.87793;973.4348;;;;
2020/01/08 08:20:02;;;;;;;12.5;9.5;;;;;;;2.78;76.34277;973.4638;;;;
2020/01/08 08:22:27;;;;;;;10.6;9.4;;;;;;;2.85;76.35547;973.4288;;;;
2020/01/08 08:24:53;;;;;;;11.4;8.9;;;;;;;2.82;76.22266;973.4969;;;;
2020/01/08 08:27:18;;;;;;;12.5;9;;;;;;;2.77;76.05176;973.4994;;;;
2020/01/08 08:29:43;;;;;;;11.2;9.2;;;;;;;2.79;76.15918;973.463;;;;
2020/01/08 08:32:08;;;;;;;11.8;8.9;;;;;;;2.92;75.79102;973.528;;;;
2020/01/08 08:34:33;;;;;;;13.3;11.2;;;;;;;3.07;75.6582;973.5758;;;;
2020/01/08 08:36:59;;;;;;;14.3;9.8;;;;;;;3.13;75.5293;973.6295;;;;
2020/01/08 08:39:24;;;;;;;12.4;10.2;;;;;;;3.19;75.25195;973.629;;;;
2020/01/08 08:41:54;;;;;;;11.2;9.5;;;;;;;3.26;75.12598;973.6782;;;;
2020/01/08 08:46:38;;;;;;;10.5;8.6;;;;;;;3.58;74.24805;973.7773;;;;
2020/01/08 08:49:04;;;;;;;11.4;9.2;;;;;;;3.58;73.3623;973.754;;;;
2020/01/08 08:51:29;;;;;;;12.9;8.8;;;;;;;3.55;73.66699;973.7378;;;;
2020/01/08 08:53:54;;;;;;;11.5;9.8;;;;;;;3.47;73.68652;973.7338;;;;
2020/01/08 08:56:19;;;;;;;11.5;9.8;;;;;;;3.56;73.78418;973.7399;;;;
2020/01/08 08:58:44;;;;;;;10.8;9.2;;;;;;;3.6;73.52637;973.7527;;;;
2020/01/08 09:01:09;;;;;;;13;10.4;;;;;;;3.57;73.86621;973.8588;;;;
2020/01/08 09:03:34;;;;;;;11.2;9.6;;;;;;;3.46;74.1709;973.8834;;;;
2020/01/08 09:05:59;;;;;;;14.5;9.3;;;;;;;3.5;74.15527;973.8947;;;;
2020/01/08 09:10:49;;;;;;;10.7;9;;;;;;;3.44;73.99512;973.7734;;;;
2020/01/08 09:13:14;;;;;;;11;8.6;;;;;;;3.22;74.90137;973.7561;;;;
2020/01/08 09:15:39;;;;;;;13.2;9.8;;;;;;;3.45;74.84961;973.8128;;;;
2020/01/08 09:18:05;;;;;;;11;9;;;;;;;3.37;74.40918;973.8256;;;;
2020/01/08 09:20:30;;;;;;;13.1;9;;;;;;;3.25;75.80469;973.7595;;;;
2020/01/08 09:22:55;;;;;;;11;8.9;;;;;;;3.38;74.64063;973.8826;;;;
2020/01/08 09:25:20;;;;;;;10.6;8.7;;;;;;;3.32;74.21582;973.8453;;;;
2020/01/08 09:27:45;;;;;;;10;8.2;;;;;;;3.04;75.09863;973.8713;;;;
2020/01/08 09:30:10;;;;;;;9.3;7.6;;;;;;;2.92;75.80273;973.8446;;;;
2020/01/08 09:32:35;;;;;;;9.6;7.5;;;;;;;2.62;77.43066;973.7581;;;;
2020/01/08 09:35:00;;;;;;;9.2;7.7;;;;;;;2.76;77.52344;973.7561;;;;
2020/01/08 09:37:26;;;;;;;10.1;7.5;;;;;;;2.9;77.19238;973.8531;;;;
2020/01/08 09:39:52;;;;;;;9.7;7.8;;;;;;;3.1;76.33105;973.9537;;;;
2020/01/08 09:42:16;;;;;;;9.1;7.4;;;;;;;3.4;75.48535;974.0261;;;;
2020/01/08 09:44:41;;;;;;;8.5;7.2;;;;;;;3.32;74.92969;974.0753;;;;
2020/01/08 09:47:07;;;;;;;9.5;7.6;;;;;;;3.53;74.47168;974.0984;;;;
2020/01/08 09:49:31;;;;;;;8.4;7;;;;;;;3.54;73.81543;974.1545;;;;
2020/01/08 09:51:56;;;;;;;8.1;7.3;;;;;;;3.52;74.17969;974.1663;;;;
2020/01/08 09:54:21;;;;;;;9.1;7.2;;;;;;;3.49;74.5332;974.2762;;;;
2020/01/08 09:56:47;;;;;;;8.5;6.5;;;;;;;3.56;73.8877;974.2715;;;;
2020/01/08 09:59:12;;;;;;;7.3;6.6;;;;;;;3.38;74.40918;974.2469;;;;
2020/01/08 10:01:37;;;;;;;9.7;6.6;;;;;;;3.22;74.71582;974.1414;;;;
2020/01/08 10:04:02;;;;;;;7.9;6.4;;;;;;;3.31;74.51367;974.1365;;;;
2020/01/08 10:06:27;;;;;;;8.8;6.2;;;;;;;3.49;73.67969;974.0952;;;;
2020/01/08 10:08:52;;;;;;;7.9;6;;;;;;;3.61;73.21777;974.0356;;;;
2020/01/08 10:11:18;;;;;;;7;6;;;;;;;3.72;73.19043;973.9739;;;;
2020/01/08 10:13:43;;;;;;;6.6;5.6;;;;;;;3.56;72.93262;973.9779;;;;
2020/01/08 10:16:08;;;;;;;7.8;6.2;;;;;;;3.88;72.38477;973.9448;;;;
2020/01/08 10:18:33;;;;;;;6.8;6;;;;;;;3.85;71.65527;973.8478;;;;
2020/01/08 10:20:58;;;;;;;7.4;5.5;;;;;;;3.94;71.85352;973.8613;;;;
2020/01/08 10:23:24;;;;;;;6.8;5.4;;;;;;;4.13;70.59375;973.8232;;;;
2020/01/08 10:25:49;;;;;;;6.4;5.4;;;;;;;4.23;70.64453;973.7781;;;;
2020/01/08 10:28:14;;;;;;;6.3;5.4;;;;;;;4.31;70.36914;973.802;;;;
2020/01/08 10:30:39;;;;;;;7.3;5.5;;;;;;;4.63;69.83203;973.8163;;;;
2020/01/08 10:33:04;;;;;;;7.4;5.1;;;;;;;4.83;68.17676;973.892;;;;
2020/01/08 10:35:29;;;;;;;6.5;5.2;;;;;;;5.1;67.08594;973.8969;;;;
2020/01/08 10:37:55;;;;;;;7.6;5;;;;;;;5.27;65.36426;973.8797;;;;
2020/01/08 10:40:20;;;;;;;5.8;5.1;;;;;;;5.5;64.07813;973.8394;;;;
2020/01/08 10:42:45;;;;;;;6;5.1;;;;;;;5.5;64.56348;973.8638;;;;
2020/01/08 10:45:10;;;;;;;6.9;5.4;;;;;;;5.52;65.70313;973.9387;;;;
2020/01/08 10:47:35;;;;;;;6.8;5;;;;;;;5.43;66.39551;973.8713;;;;
2020/01/08 10:50:00;;;;;;;7.7;5;;;;;;;5.32;67.09766;973.7618;;;;
2020/01/08 10:52:25;;;;;;;6.6;5.3;;;;;;;5.23;67.75488;973.6498;;;;
2020/01/08 10:54:50;;;;;;;6.3;5.3;;;;;;;5.21;67.72852;973.6987;;;;
2020/01/08 10:57:16;;;;;;;7.3;5.4;;;;;;;5.17;67.85938;973.5961;;;;
2020/01/08 10:59:41;;;;;;;7.4;5.7;;;;;;;5.14;67.53125;973.545;;;;
2020/01/08 11:02:06;;;;;;;6.4;5.4;;;;;;;5.16;67.78906;973.5083;;;;
2020/01/08 11:04:31;;;;;;;8.1;5.7;;;;;;;5.19;67.74805;973.3727;;;;
2020/01/08 11:06:56;;;;;;;7.6;5.4;;;;;;;5.11;67.08594;973.3111;;;;
2020/01/08 11:09:22;;;;;;;7;5.6;;;;;;;4.95;68.45898;973.282;;;;
2020/01/08 11:11:47;;;;;;;6.1;4.9;;;;;;;5.02;68.78613;973.2142;;;;
2020/01/08 11:14:12;;;;;;;5.7;4.8;;;;;;;4.84;68.4541;973.2483;;;;
2020/01/08 11:16:37;;;;;;;8.8;5.1;;;;;;;4.9;69.06543;973.2461;;;;
2020/01/08 11:19:02;;;;;;;6.5;4.9;;;;;;;4.82;69.3877;973.2321;;;;
2020/01/08 11:21:29;;;;;;;7.1;5;;;;;;;5.05;71.64844;973.2219;;;;
2020/01/08 11:23:52;;;;;;;5.9;4.5;;;;;;;4.91;68.84863;973.1311;;;;
2020/01/08 11:28:42;;;;;;;6.7;4.7;;;;;;;4.98;69.15918;973.0295;;;;
2020/01/08 11:31:11;;;;;;;7;5.4;;;;;;;5.11;68.68262;972.9861;;;;
2020/01/08 11:33:33;;;;;;;5.6;4.3;;;;;;;5.03;69.13281;973.0715;;;;
2020/01/08 11:35:58;;;;;;;14.1;10.4;;;;;;;5.15;68.81738;973.027;;;;
2020/01/08 11:38:23;;;;;;;9.1;6.1;;;;;;;5.13;68.57129;973.043;;;;
2020/01/08 11:40:48;;;;;;;11;8.4;;;;;;;5.21;67.80957;973.0823;;;;
2020/01/08 11:43:13;;;;;;;7.3;5.4;;;;;;;5.31;67.67383;973.075;;;;
2020/01/08 11:45:38;;;;;;;5.7;4.3;;;;;;;5.26;67.26172;973.0642;;;;
2020/01/08 11:48:04;;;;;;;9.2;6.9;;;;;;;5.31;67.2793;973.0589;;;;
2020/01/08 11:50:29;;;;;;;8;4.6;;;;;;;5.25;67.50195;973.0535;;;;
2020/01/08 11:52:54;;;;;;;11.8;7.5;;;;;;;5.27;67.43652;973.0697;;;;
2020/01/08 11:55:19;;;;;;;7.2;5.4;;;;;;;5.31;68.10156;973.0314;;;;
2020/01/08 11:57:44;;;;;;;6.2;4.3;;;;;;;5.33;68;973.0363;;;;
2020/01/08 12:00:10;;;;;;;6.1;4.4;;;;;;;5.42;68.10742;973.0058;;;;
2020/01/08 12:02:35;;;;;;;5.7;4.2;;;;;;;5.53;67.53613;972.9014;;;;
2020/01/08 12:05:00;;;;;;;7.1;4.5;;;;;;;5.51;67.52148;972.8502;;;;
2020/01/08 12:07:25;;;;;;;7.3;4.3;;;;;;;5.53;67.05957;972.8217;;;;
2020/01/08 12:09:50;;;;;;;6.5;4.2;;;;;;;5.51;67.7041;972.7659;;;;
2020/01/08 12:12:15;;;;;;;5.4;4.1;;;;;;;5.56;67.32031;972.6592;;;;
2020/01/08 12:14:41;;;;;;;5.3;4.2;;;;;;;5.57;67.49512;972.5864;;;;
2020/01/08 12:17:06;;;;;;;5.8;4.4;;;;;;;5.6;67.62695;972.5725;;;;
2020/01/08 12:19:31;;;;;;;7.5;4.7;;;;;;;5.55;67.5498;972.481;;;;
2020/01/08 12:21:56;;;;;;;6.8;5;;;;;;;5.53;67.66309;972.3462;;;;
2020/01/08 12:24:21;;;;;;;6.3;4.8;;;;;;;5.55;68.05859;972.2886;;;;
2020/01/08 12:26:46;;;;;;;5.9;4.4;;;;;;;5.58;68.24805;972.2932;;;;
2020/01/08 12:29:11;;;;;;;8.2;4.5;;;;;;;5.63;67.82813;972.274;;;;
2020/01/08 12:31:36;;;;;;;6;4.3;;;;;;;5.67;67.03418;972.2628;;;;
2020/01/08 12:34:02;;;;;;;6.6;4.5;;;;;;;5.7;66.54199;972.2217;;;;
2020/01/08 12:36:32;;;;;;;6.7;4.5;;;;;;;5.75;66.13379;972.2206;;;;
2020/01/08 12:38:52;;;;;;;7.3;4.4;;;;;;;5.81;66.97656;972.2408;;;;
2020/01/08 12:41:17;;;;;;;7.3;4.5;;;;;;;5.84;66.2627;972.1994;;;;
2020/01/08 12:43:42;;;;;;;5.9;4.4;;;;;;;5.91;66.44824;972.2216;;;;
2020/01/08 12:47:08;;;;;;;7.4;4.6;;;;;;;5.99;66.27344;972.2506;;;;
2020/01/08 12:48:32;;;;;;;5.9;4.5;;;;;;;6.11;66.19922;972.2645;;;;
2020/01/08 12:50:58;;;;;;;8.1;4.8;;;;;;;6.16;65.8584;972.241;;;;
2020/01/08 12:53:23;;;;;;;7.4;4.8;;;;;;;6.17;65.75488;972.2148;;;;
2020/01/08 12:55:48;;;;;;;5.8;4.2;;;;;;;6.18;64.81836;972.1805;;;;
2020/01/08 12:58:13;;;;;;;8.3;4.6;;;;;;;6.2;64.61328;972.1933;;;;
2020/01/08 13:00:38;;;;;;;6.8;4.7;;;;;;;6.24;64.79102;972.1937;;;;
2020/01/08 13:03:03;;;;;;;7.2;4.6;;;;;;;6.22;64.89355;972.168;;;;
2020/01/08 13:05:29;;;;;;;6.2;4.6;;;;;;;6.32;64.20117;972.2177;;;;
2020/01/08 13:07:54;;;;;;;6.3;4;;;;;;;6.3;63.66504;972.2469;;;;
2020/01/08 13:10:19;;;;;;;8.1;4.1;;;;;;;6.37;63.91895;972.2386;;;;
2020/01/08 13:12:44;;;;;;;7.4;4.2;;;;;;;6.45;63.75684;972.1666;;;;
2020/01/08 13:15:09;;;;;;;5;3.7;;;;;;;6.41;63.71484;972.121;;;;
2020/01/08 13:17:34;;;;;;;8.5;4.4;;;;;;;6.43;62.30176;972.087;;;;
2020/01/08 13:20:11;;;;;;;6.3;4.2;;;;;;;6.46;62.49219;972.03;;;;
2020/01/08 13:24:53;;;;;;;6.8;4.7;;;;;;;6.53;62.61914;972.0628;;;;
2020/01/08 13:27:14;;;;;;;6.6;4.2;;;;;;;6.6;61.4209;972.0989;;;;
2020/01/08 13:29:40;;;;;;;6.2;4.2;;;;;;;6.65;60.49805;972.1253;;;;
2020/01/08 13:32:05;;;;;;;7.2;3.9;;;;;;;6.63;60.25098;972.2056;;;;
2020/01/08 13:34:30;;;;;;;10.4;4.5;;;;;;;6.64;59.77734;972.1445;;;;
2020/01/08 13:36:55;;;;;;;9;4.5;;;;;;;6.63;60.00977;972.169;;;;
2020/01/08 13:39:21;;;;;;;6.3;4.3;;;;;;;6.72;60.13672;972.2687;;;;
2020/01/08 13:41:46;;;;;;;8.9;4.5;;;;;;;6.81;59.59277;972.3137;;;;
2020/01/08 13:44:11;;;;;;;6.7;4.4;;;;;;;6.83;60.4082;972.3554;;;;
2020/01/08 13:46:36;;;;;;;6.9;4.1;;;;;;;6.83;60.05859;972.2964;;;;
2020/01/08 13:49:01;;;;;;;9.1;4.2;;;;;;;6.92;58.43457;972.2985;;;;
2020/01/08 13:51:26;;;;;;;5.7;4.2;;;;;;;7.01;58.53809;972.2614;;;;
2020/01/08 13:53:51;;;;;;;8.8;4.5;;;;;;;7.09;59.0957;972.2739;;;;
2020/01/08 13:58:20;;;;;;;9.4;4.3;;;;;;;7.15;57.46582;972.3038;;;;
2020/01/08 14:00:45;;;;;;;7.3;4.5;;;;;;;7.13;57.18457;972.2043;;;;
2020/01/08 14:03:10;;;;;;;9.6;4.8;;;;;;;7.18;57.94531;972.1822;;;;
2020/01/08 14:05:36;;;;;;;6;4.3;;;;;;;7.16;57.82617;972.1791;;;;
2020/01/08 14:08:01;;;;;;;7.9;4.6;;;;;;;7.16;57.69824;972.1758;;;;
2020/01/08 14:10:26;;;;;;;9.9;4.3;;;;;;;7.17;58.03809;972.2109;;;;
2020/01/08 14:12:51;;;;;;;8.1;4.5;;;;;;;7.23;58.45215;972.2249;;;;
2020/01/08 14:15:16;;;;;;;6.8;4.5;;;;;;;7.34;58.46777;972.2523;;;;
2020/01/08 14:17:41;;;;;;;9;4.4;;;;;;;7.41;58.15137;972.2811;;;;
2020/01/08 14:20:06;;;;;;;8.2;4.2;;;;;;;7.39;57.69531;972.3119;;;;
2020/01/08 14:22:31;;;;;;;7.9;4.5;;;;;;;7.42;58.52539;972.3602;;;;
2020/01/08 14:24:56;;;;;;;9.1;4.8;;;;;;;7.42;58.39746;972.3228;;;;
2020/01/08 14:27:21;;;;;;;7.7;4.5;;;;;;;7.45;58.09961;972.3451;;;;
2020/01/08 14:29:46;;;;;;;7.1;4.4;;;;;;;7.47;58.95117;972.3608;;;;
2020/01/08 14:32:12;;;;;;;6.4;4.7;;;;;;;7.44;59.46973;972.3293;;;;
2020/01/08 14:34:37;;;;;;;9;4.9;;;;;;;7.45;59.84375;972.3542;;;;
2020/01/08 14:37:02;;;;;;;9.1;4.8;;;;;;;7.48;60.33594;972.323;;;;
2020/01/08 14:39:27;;;;;;;7.1;4.5;;;;;;;7.45;60.30859;972.3209;;;;